Time;durP1;ratioP1;P1;durP2;ratioP2;P2;SDS_P1;SDS_P2;PMS_P1;PMS_P2;Temp;Humidity;BMP_temperature;BMP_pressure;BME280_temperature;BME280_humidity;BME280_pressure;Samples;Min_cycle;Max_cycle;Signal;HPM_P1;HPM_P2
2024/01/30 00:00:12;;;;;;;22.20;16.27;;;;;;;;;;5103247;28;20470;-66
2024/01/30 00:02:38;;;;;;;20.70;15.77;;;;;;;;;;5094496;27;21031;-66
2024/01/30 00:05:05;;;;;;;24.73;17.20;;;;;;;;;;5098528;28;20480;-67
2024/01/30 00:07:33;;;;;;;21.53;16.77;;;;;;;;;;5092028;28;20457;-68
2024/01/30 00:09:59;;;;;;;17.50;15.10;;;;;;;;;;5093142;28;20462;-67
2024/01/30 00:12:26;;;;;;;23.60;16.63;;;;;;;;;;5101606;28;20459;-67
2024/01/30 00:14:52;;;;;;;18.90;15.40;;;;;;;;;;5102550;28;20454;-67
2024/01/30 00:17:20;;;;;;;23.80;16.80;;;;;;;;;;5098817;28;20795;-67
2024/01/30 00:19:47;;;;;;;22.33;16.80;;;;;;;;;;5099119;28;20443;-66
2024/01/30 00:22:13;;;;;;;25.20;16.20;;;;;;;;;;5101032;28;21054;-67
2024/01/30 00:24:41;;;;;;;24.30;16.70;;;;;;;;;;5096101;28;20541;-66
2024/01/30 00:27:08;;;;;;;21.93;16.67;;;;;;;;;;5107416;28;20459;-67
2024/01/30 00:29:35;;;;;;;20.00;16.03;;;;;;;;;;5104178;28;20596;-66
2024/01/30 00:32:01;;;;;;;23.20;16.43;;;;;;;;;;5099700;28;20910;-67
2024/01/30 00:34:28;;;;;;;27.50;16.50;;;;;;;;;;5094867;28;20439;-67
2024/01/30 00:36:54;;;;;;;21.20;17.40;;;;;;;;;;5093119;28;20548;-67
2024/01/30 00:39:20;;;;;;;26.50;19.00;;;;;;;;;;5098098;28;20539;-67
2024/01/30 00:41:48;;;;;;;21.77;17.07;;;;;;;;;;5100188;28;20478;-67
2024/01/30 00:44:15;;;;;;;22.30;17.63;;;;;;;;;;5091896;28;20506;-67
2024/01/30 00:46:41;;;;;;;21.67;16.10;;;;;;;;;;5088645;28;20541;-66
2024/01/30 00:49:07;;;;;;;22.13;17.57;;;;;;;;;;5105308;28;20475;-67
2024/01/30 00:51:34;;;;;;;21.33;16.40;;;;;;;;;;5099016;28;20921;-69
2024/01/30 00:54:00;;;;;;;25.10;16.00;;;;;;;;;;5100588;28;20451;-68
2024/01/30 00:56:27;;;;;;;24.70;15.50;;;;;;;;;;5099780;28;20507;-67
2024/01/30 00:58:55;;;;;;;24.27;17.70;;;;;;;;;;5096612;28;20463;-67
2024/01/30 01:01:22;;;;;;;21.90;15.23;;;;;;;;;;5102643;28;20455;-66
2024/01/30 01:03:48;;;;;;;26.40;16.93;;;;;;;;;;5089660;28;20466;-67
2024/01/30 01:06:14;;;;;;;22.70;17.40;;;;;;;;;;5097848;28;20507;-65
2024/01/30 01:08:41;;;;;;;23.10;17.43;;;;;;;;;;5101852;28;20511;-66
2024/01/30 01:11:06;;;;;;;21.23;15.87;;;;;;;;;;5095722;28;20522;-69
2024/01/30 01:13:33;;;;;;;26.20;18.00;;;;;;;;;;5095643;28;20478;-66
2024/01/30 01:16:00;;;;;;;25.17;19.30;;;;;;;;;;5104333;28;20233;-67
2024/01/30 01:18:27;;;;;;;24.30;17.10;;;;;;;;;;5088056;28;20531;-66
2024/01/30 01:20:54;;;;;;;24.83;16.23;;;;;;;;;;5093770;28;20468;-66
2024/01/30 01:23:20;;;;;;;22.10;16.97;;;;;;;;;;5095359;28;21024;-65
2024/01/30 01:25:46;;;;;;;24.13;18.23;;;;;;;;;;5100438;28;20563;-65
2024/01/30 01:28:13;;;;;;;22.13;15.87;;;;;;;;;;5095263;28;20967;-66
2024/01/30 01:30:39;;;;;;;24.00;18.03;;;;;;;;;;5101893;28;20683;-66
2024/01/30 01:33:07;;;;;;;26.40;18.10;;;;;;;;;;5097918;28;20490;-68
2024/01/30 01:35:34;;;;;;;23.07;17.43;;;;;;;;;;5106011;28;20473;-66
2024/01/30 01:38:00;;;;;;;21.80;16.60;;;;;;;;;;5102996;28;20489;-67
2024/01/30 01:40:28;;;;;;;24.67;16.87;;;;;;;;;;5100386;28;20443;-67
2024/01/30 01:42:55;;;;;;;25.20;17.70;;;;;;;;;;5097529;28;20904;-66
2024/01/30 01:45:22;;;;;;;23.33;16.73;;;;;;;;;;5098797;28;20523;-66
2024/01/30 01:47:49;;;;;;;24.10;16.73;;;;;;;;;;5105567;28;20510;-67
2024/01/30 01:50:18;;;;;;;21.93;16.40;;;;;;;;;;5104833;28;20447;-66
2024/01/30 01:52:45;;;;;;;26.07;17.13;;;;;;;;;;5096565;28;20454;-67
2024/01/30 01:55:12;;;;;;;24.70;19.10;;;;;;;;;;5096461;28;21059;-66
2024/01/30 01:57:38;;;;;;;18.80;16.03;;;;;;;;;;5096700;28;20558;-66
2024/01/30 02:00:05;;;;;;;24.87;17.70;;;;;;;;;;5096421;28;20511;-66
2024/01/30 02:02:33;;;;;;;26.53;16.43;;;;;;;;;;5093951;28;20463;-67
2024/01/30 02:05:00;;;;;;;24.70;18.30;;;;;;;;;;5087563;28;20549;-66
2024/01/30 02:07:28;;;;;;;21.13;16.30;;;;;;;;;;5106496;28;20480;-68
2024/01/30 02:09:55;;;;;;;23.70;17.03;;;;;;;;;;5102668;28;20949;-68
2024/01/30 02:12:21;;;;;;;27.00;17.20;;;;;;;;;;5106693;28;20459;-68
2024/01/30 02:14:48;;;;;;;23.97;18.27;;;;;;;;;;5094224;28;20531;-67
2024/01/30 02:17:14;;;;;;;20.23;15.13;;;;;;;;;;5094800;28;20984;-66
2024/01/30 02:19:40;;;;;;;24.57;16.70;;;;;;;;;;5097360;28;20518;-66
2024/01/30 02:22:08;;;;;;;22.37;16.87;;;;;;;;;;5101861;28;20539;-67
2024/01/30 02:24:35;;;;;;;21.33;16.60;;;;;;;;;;5097432;28;20516;-66
2024/01/30 02:27:01;;;;;;;19.90;16.10;;;;;;;;;;5097434;28;20558;-66
2024/01/30 02:29:28;;;;;;;22.90;16.07;;;;;;;;;;5094026;28;20447;-65
2024/01/30 02:31:54;;;;;;;22.87;17.23;;;;;;;;;;5103413;28;20482;-67
2024/01/30 02:34:21;;;;;;;24.27;16.70;;;;;;;;;;5096683;28;20451;-67
2024/01/30 02:36:47;;;;;;;24.17;16.87;;;;;;;;;;5101481;28;20459;-67
2024/01/30 02:39:15;;;;;;;21.57;16.70;;;;;;;;;;5088251;28;20579;-67
2024/01/30 02:41:41;;;;;;;24.97;16.80;;;;;;;;;;5095507;28;20489;-67
2024/01/30 02:44:07;;;;;;;23.27;17.33;;;;;;;;;;5096485;28;20451;-67
2024/01/30 02:46:34;;;;;;;23.53;17.70;;;;;;;;;;5101445;28;20589;-67
2024/01/30 02:49:00;;;;;;;24.70;17.10;;;;;;;;;;5103807;28;20511;-66
2024/01/30 02:51:27;;;;;;;23.70;16.37;;;;;;;;;;5101833;28;20466;-67
2024/01/30 02:53:53;;;;;;;22.27;16.97;;;;;;;;;;5108140;28;20482;-67
2024/01/30 02:56:21;;;;;;;22.83;17.37;;;;;;;;;;5100991;28;20443;-68
2024/01/30 02:58:47;;;;;;;21.67;16.83;;;;;;;;;;5098595;28;20459;-67
2024/01/30 03:01:13;;;;;;;23.87;17.77;;;;;;;;;;5101975;28;20473;-67
2024/01/30 03:03:40;;;;;;;24.20;16.90;;;;;;;;;;5106897;28;20545;-67
2024/01/30 03:06:07;;;;;;;26.23;18.07;;;;;;;;;;5091549;28;20497;-67
2024/01/30 03:08:34;;;;;;;25.70;17.33;;;;;;;;;;5092215;28;20522;-66
2024/01/30 03:11:01;;;;;;;24.33;16.97;;;;;;;;;;5090455;28;20488;-66
2024/01/30 03:13:29;;;;;;;22.70;16.93;;;;;;;;;;5105216;28;20799;-66
2024/01/30 03:15:55;;;;;;;25.10;18.40;;;;;;;;;;5102577;28;20456;-67
2024/01/30 03:18:22;;;;;;;25.87;17.27;;;;;;;;;;5094945;28;20876;-67
2024/01/30 03:20:48;;;;;;;26.67;17.73;;;;;;;;;;5089889;28;20447;-66
2024/01/30 03:23:14;;;;;;;24.57;18.73;;;;;;;;;;5097908;28;20534;-67
2024/01/30 03:25:41;;;;;;;25.43;17.37;;;;;;;;;;5106199;28;20483;-66
2024/01/30 03:28:07;;;;;;;24.53;17.80;;;;;;;;;;5095571;28;20519;-68
2024/01/30 03:30:35;;;;;;;29.33;18.27;;;;;;;;;;5102801;28;20483;-67
2024/01/30 03:33:02;;;;;;;25.03;18.53;;;;;;;;;;5093497;28;20502;-66
2024/01/30 03:35:28;;;;;;;25.67;18.53;;;;;;;;;;5088808;28;20559;-67
2024/01/30 03:37:54;;;;;;;24.70;19.53;;;;;;;;;;5096767;28;20558;-67
2024/01/30 03:40:21;;;;;;;26.57;18.53;;;;;;;;;;5099268;28;20543;-67
2024/01/30 03:42:47;;;;;;;25.80;18.83;;;;;;;;;;5091088;28;20471;-68
2024/01/30 03:45:13;;;;;;;26.37;18.10;;;;;;;;;;5102447;28;20475;-66
2024/01/30 03:47:44;;;;;;;29.93;17.57;;;;;;;;;;5103202;28;20590;-66
2024/01/30 03:50:10;;;;;;;21.60;17.30;;;;;;;;;;5107070;28;20449;-67
2024/01/30 03:52:37;;;;;;;24.80;18.73;;;;;;;;;;5105090;28;20466;-67
2024/01/30 03:55:03;;;;;;;25.07;17.77;;;;;;;;;;5099362;28;20446;-67
2024/01/30 03:57:30;;;;;;;21.13;17.43;;;;;;;;;;5100069;28;20593;-67
2024/01/30 03:59:56;;;;;;;27.37;18.00;;;;;;;;;;5096555;28;20950;-65
2024/01/30 04:02:22;;;;;;;22.57;17.20;;;;;;;;;;5106328;28;20465;-67
2024/01/30 04:04:50;;;;;;;23.87;17.50;;;;;;;;;;5103563;28;20514;-66
2024/01/30 04:07:16;;;;;;;28.23;17.00;;;;;;;;;;5100450;28;20506;-66
2024/01/30 04:09:43;;;;;;;24.20;18.63;;;;;;;;;;5102743;28;20515;-67
2024/01/30 04:12:09;;;;;;;22.73;17.47;;;;;;;;;;5094696;28;20462;-67
2024/01/30 04:14:36;;;;;;;24.70;17.00;;;;;;;;;;5101267;28;20518;-67
2024/01/30 04:17:02;;;;;;;25.07;18.17;;;;;;;;;;5091700;28;20451;-67
2024/01/30 04:19:29;;;;;;;23.03;17.57;;;;;;;;;;5101699;28;20456;-66
2024/01/30 04:21:57;;;;;;;25.73;17.53;;;;;;;;;;5096076;28;20547;-67
2024/01/30 04:24:23;;;;;;;23.57;18.47;;;;;;;;;;5101829;28;20519;-68
2024/01/30 04:26:50;;;;;;;27.20;17.90;;;;;;;;;;5093692;28;20573;-66
2024/01/30 04:29:16;;;;;;;26.43;16.80;;;;;;;;;;5094557;28;20524;-67
2024/01/30 04:31:43;;;;;;;24.30;16.87;;;;;;;;;;5102888;28;20831;-65
2024/01/30 04:34:09;;;;;;;22.73;17.00;;;;;;;;;;5088978;28;20509;-67
2024/01/30 04:36:35;;;;;;;27.13;17.80;;;;;;;;;;5098088;28;20478;-67
2024/01/30 04:39:03;;;;;;;24.63;16.77;;;;;;;;;;5091016;28;20590;-66
2024/01/30 04:41:31;;;;;;;22.50;16.50;;;;;;;;;;5097333;28;20500;-67
2024/01/30 04:43:58;;;;;;;24.80;18.50;;;;;;;;;;5099562;28;20460;-67
2024/01/30 04:46:24;;;;;;;24.73;18.50;;;;;;;;;;5107357;28;20483;-66
2024/01/30 04:48:50;;;;;;;25.80;18.00;;;;;;;;;;5101886;28;20514;-68
2024/01/30 04:51:17;;;;;;;26.40;17.40;;;;;;;;;;5100591;28;20469;-68
2024/01/30 04:53:43;;;;;;;26.60;19.90;;;;;;;;;;5093602;28;20470;-67
2024/01/30 04:56:11;;;;;;;27.33;18.13;;;;;;;;;;5092704;28;20482;-67
2024/01/30 04:58:37;;;;;;;23.53;17.10;;;;;;;;;;5096708;28;20503;-67
2024/01/30 05:01:04;;;;;;;26.40;17.63;;;;;;;;;;5101468;28;20542;-67
2024/01/30 05:03:33;;;;;;;25.43;17.60;;;;;;;;;;5098462;28;20775;-67
2024/01/30 05:06:00;;;;;;;30.50;20.60;;;;;;;;;;5096645;28;20482;-67
2024/01/30 05:08:26;;;;;;;29.43;20.67;;;;;;;;;;5098397;28;20482;-67
2024/01/30 05:10:52;;;;;;;24.20;18.33;;;;;;;;;;5091701;28;20470;-67
2024/01/30 05:13:20;;;;;;;26.70;19.00;;;;;;;;;;5094856;28;20538;-67
2024/01/30 05:15:46;;;;;;;26.20;18.73;;;;;;;;;;5103947;28;20523;-66
2024/01/30 05:18:13;;;;;;;31.93;20.40;;;;;;;;;;5097378;28;20542;-68
2024/01/30 05:20:39;;;;;;;25.80;18.20;;;;;;;;;;5100847;28;20447;-67
2024/01/30 05:23:06;;;;;;;26.03;19.40;;;;;;;;;;5092389;28;20558;-63
2024/01/30 05:25:32;;;;;;;27.63;20.30;;;;;;;;;;5083102;28;20503;-63
2024/01/30 05:27:58;;;;;;;29.47;21.27;;;;;;;;;;5092221;28;20561;-63
2024/01/30 05:30:26;;;;;;;26.40;19.63;;;;;;;;;;5101498;28;20473;-63
2024/01/30 05:32:52;;;;;;;37.33;22.13;;;;;;;;;;5096961;28;20527;-63
2024/01/30 05:35:20;;;;;;;26.53;20.80;;;;;;;;;;5087745;28;20480;-63
2024/01/30 05:37:47;;;;;;;30.30;22.00;;;;;;;;;;5087833;28;20516;-64
2024/01/30 05:40:14;;;;;;;28.03;21.83;;;;;;;;;;5085275;28;20574;-64
2024/01/30 05:42:40;;;;;;;28.03;19.87;;;;;;;;;;5096197;28;20499;-64
2024/01/30 05:45:07;;;;;;;28.70;21.10;;;;;;;;;;5088681;28;20516;-63
2024/01/30 05:47:35;;;;;;;28.60;21.33;;;;;;;;;;5088986;28;20498;-63
2024/01/30 05:50:01;;;;;;;26.63;19.50;;;;;;;;;;5094235;28;20534;-64
2024/01/30 05:52:28;;;;;;;29.07;20.67;;;;;;;;;;5094643;28;20481;-64
2024/01/30 05:54:54;;;;;;;31.20;20.40;;;;;;;;;;5093822;28;20499;-65
2024/01/30 05:57:21;;;;;;;28.87;17.90;;;;;;;;;;5084077;28;20456;-65
2024/01/30 05:59:48;;;;;;;29.23;19.57;;;;;;;;;;5086439;28;20984;-65
2024/01/30 06:02:14;;;;;;;28.23;19.17;;;;;;;;;;5084415;28;20455;-65
2024/01/30 06:04:42;;;;;;;29.40;19.70;;;;;;;;;;5096113;28;20518;-65
2024/01/30 06:07:08;;;;;;;28.50;20.17;;;;;;;;;;5096252;28;21039;-64
2024/01/30 06:09:35;;;;;;;32.03;20.10;;;;;;;;;;5091440;28;20440;-64
2024/01/30 06:12:01;;;;;;;27.20;18.87;;;;;;;;;;5081227;28;20643;-63
2024/01/30 06:14:27;;;;;;;25.60;18.80;;;;;;;;;;5099329;28;20443;-65
2024/01/30 06:16:54;;;;;;;31.03;19.87;;;;;;;;;;5097066;28;20526;-65
2024/01/30 06:19:20;;;;;;;30.50;20.37;;;;;;;;;;5110904;28;20533;-65
2024/01/30 06:21:48;;;;;;;29.80;19.40;;;;;;;;;;5105897;28;20486;-65
2024/01/30 06:24:14;;;;;;;29.00;18.77;;;;;;;;;;5095354;28;20476;-65
2024/01/30 06:26:41;;;;;;;24.43;17.50;;;;;;;;;;5102168;28;20491;-65
2024/01/30 06:29:07;;;;;;;20.80;15.57;;;;;;;;;;5099553;28;20446;-65
2024/01/30 06:31:34;;;;;;;19.63;12.87;;;;;;;;;;5095441;28;20553;-65
2024/01/30 06:34:00;;;;;;;22.70;16.27;;;;;;;;;;5088337;28;20510;-65
2024/01/30 06:36:26;;;;;;;18.70;13.77;;;;;;;;;;5097219;28;20483;-64
2024/01/30 06:38:54;;;;;;;16.80;12.50;;;;;;;;;;5094160;28;20920;-64
2024/01/30 06:41:21;;;;;;;20.63;13.93;;;;;;;;;;5091596;28;20519;-64
2024/01/30 06:43:47;;;;;;;19.20;13.43;;;;;;;;;;5092658;28;20516;-64
2024/01/30 06:46:14;;;;;;;23.63;14.20;;;;;;;;;;5100388;28;20534;-64
2024/01/30 06:48:41;;;;;;;22.80;17.30;;;;;;;;;;5084941;28;21013;-64
2024/01/30 06:51:07;;;;;;;29.00;18.77;;;;;;;;;;5105905;28;20451;-64
2024/01/30 06:53:34;;;;;;;28.40;19.07;;;;;;;;;;5103419;28;20491;-64
2024/01/30 06:56:01;;;;;;;23.10;17.03;;;;;;;;;;5094272;28;20462;-64
2024/01/30 06:58:28;;;;;;;27.20;18.63;;;;;;;;;;5090353;28;20546;-64
2024/01/30 07:00:55;;;;;;;29.43;20.13;;;;;;;;;;5097150;28;20894;-65
2024/01/30 07:03:21;;;;;;;24.50;17.70;;;;;;;;;;5086417;28;20486;-64
2024/01/30 07:05:48;;;;;;;23.43;18.77;;;;;;;;;;5092583;28;20446;-65
2024/01/30 07:08:17;;;;;;;28.20;18.53;;;;;;;;;;5094976;28;20490;-64
2024/01/30 07:10:43;;;;;;;27.00;19.27;;;;;;;;;;5089003;28;20519;-64
2024/01/30 07:13:11;;;;;;;26.37;18.27;;;;;;;;;;5093306;28;20460;-64
2024/01/30 07:15:40;;;;;;;28.57;17.77;;;;;;;;;;5094728;28;20499;-65
2024/01/30 07:18:07;;;;;;;27.70;19.87;;;;;;;;;;5085281;28;20460;-64
2024/01/30 07:20:35;;;;;;;26.63;18.97;;;;;;;;;;5100260;28;20475;-65
2024/01/30 07:23:02;;;;;;;32.70;19.57;;;;;;;;;;5088591;28;20938;-64
2024/01/30 07:25:29;;;;;;;29.67;19.00;;;;;;;;;;5092323;28;20448;-65
2024/01/30 07:27:56;;;;;;;27.93;20.50;;;;;;;;;;5088615;28;20645;-65
2024/01/30 07:30:24;;;;;;;31.10;21.13;;;;;;;;;;5094655;28;20524;-65
2024/01/30 07:32:50;;;;;;;29.23;20.83;;;;;;;;;;5098479;28;20455;-65
2024/01/30 07:35:17;;;;;;;28.63;20.93;;;;;;;;;;5086548;28;20512;-64
2024/01/30 07:37:43;;;;;;;32.10;20.57;;;;;;;;;;5100614;28;20986;-64
2024/01/30 07:40:10;;;;;;;31.97;20.10;;;;;;;;;;5093131;28;20482;-64
2024/01/30 07:42:36;;;;;;;30.87;21.93;;;;;;;;;;5094732;28;20524;-65
2024/01/30 07:45:03;;;;;;;28.00;19.70;;;;;;;;;;5097613;28;20520;-64
2024/01/30 07:47:31;;;;;;;26.70;18.73;;;;;;;;;;5090131;28;20487;-64
2024/01/30 07:49:57;;;;;;;30.10;21.80;;;;;;;;;;5090149;28;20918;-64
2024/01/30 07:52:23;;;;;;;28.83;20.83;;;;;;;;;;5086922;28;20456;-64
2024/01/30 07:54:50;;;;;;;27.50;19.10;;;;;;;;;;5087192;28;20467;-64
2024/01/30 07:57:16;;;;;;;27.57;19.80;;;;;;;;;;5084701;28;20516;-64
2024/01/30 07:59:43;;;;;;;25.60;17.63;;;;;;;;;;5088180;28;20447;-64
2024/01/30 08:02:10;;;;;;;22.57;17.80;;;;;;;;;;5093364;28;20499;-65
2024/01/30 08:04:37;;;;;;;21.50;15.10;;;;;;;;;;5091534;28;20475;-65
2024/01/30 08:07:04;;;;;;;21.17;14.87;;;;;;;;;;5095756;28;20902;-64
2024/01/30 08:09:30;;;;;;;21.40;16.20;;;;;;;;;;5099129;28;20467;-65
2024/01/30 08:11:57;;;;;;;25.00;17.10;;;;;;;;;;5081733;28;20475;-65
2024/01/30 08:14:23;;;;;;;20.73;14.67;;;;;;;;;;5088209;28;20447;-64
2024/01/30 08:16:50;;;;;;;23.37;15.30;;;;;;;;;;5098384;28;20454;-65
2024/01/30 08:19:16;;;;;;;18.13;15.23;;;;;;;;;;5094144;28;20510;-64
2024/01/30 08:21:44;;;;;;;18.60;11.67;;;;;;;;;;5094540;28;20468;-64
2024/01/30 08:24:10;;;;;;;14.63;11.60;;;;;;;;;;5096365;28;20629;-64
2024/01/30 08:26:37;;;;;;;13.33;10.80;;;;;;;;;;5092365;28;20950;-65
2024/01/30 08:29:03;;;;;;;14.40;9.47;;;;;;;;;;5086881;28;20579;-64
2024/01/30 08:31:29;;;;;;;11.40;8.73;;;;;;;;;;5088817;28;20460;-64
2024/01/30 08:33:56;;;;;;;10.97;9.23;;;;;;;;;;5085011;28;20904;-66
2024/01/30 08:36:22;;;;;;;12.83;9.17;;;;;;;;;;5086421;28;20462;-65
2024/01/30 08:38:50;;;;;;;13.60;11.40;;;;;;;;;;5101645;28;20721;-66
2024/01/30 08:41:16;;;;;;;12.93;10.17;;;;;;;;;;5084989;28;20890;-65
2024/01/30 08:43:44;;;;;;;12.47;11.17;;;;;;;;;;5095880;28;20482;-66
2024/01/30 08:46:10;;;;;;;17.20;13.60;;;;;;;;;;5080937;28;21025;-66
2024/01/30 08:48:37;;;;;;;12.70;9.77;;;;;;;;;;5085903;28;20558;-64
2024/01/30 08:51:03;;;;;;;11.03;9.93;;;;;;;;;;5095059;28;20519;-64
2024/01/30 08:53:30;;;;;;;10.07;9.07;;;;;;;;;;5093814;28;20734;-67
2024/01/30 08:55:58;;;;;;;10.77;9.23;;;;;;;;;;5091183;28;20504;-67
2024/01/30 08:58:27;;;;;;;10.50;8.90;;;;;;;;;;5084903;28;20455;-66
2024/01/30 09:00:54;;;;;;;9.33;8.33;;;;;;;;;;5092313;28;20455;-66
2024/01/30 09:03:20;;;;;;;11.40;8.17;;;;;;;;;;5092569;28;20482;-65
2024/01/30 09:05:46;;;;;;;9.57;8.43;;;;;;;;;;5089277;28;20487;-65
2024/01/30 09:08:13;;;;;;;8.97;8.07;;;;;;;;;;5091725;28;20953;-65
2024/01/30 09:10:39;;;;;;;9.43;8.40;;;;;;;;;;5084018;28;20469;-66
2024/01/30 09:13:08;;;;;;;8.90;7.73;;;;;;;;;;5085667;28;20590;-66
2024/01/30 09:15:35;;;;;;;9.87;7.80;;;;;;;;;;5088029;28;20511;-65
2024/01/30 09:18:01;;;;;;;8.83;8.03;;;;;;;;;;5089643;28;20725;-65
2024/01/30 09:20:28;;;;;;;8.70;7.90;;;;;;;;;;5083496;28;20874;-65
2024/01/30 09:22:54;;;;;;;8.50;7.60;;;;;;;;;;5089941;28;20475;-65
2024/01/30 09:25:21;;;;;;;9.73;8.73;;;;;;;;;;5090730;28;20483;-66
2024/01/30 09:27:47;;;;;;;9.60;8.70;;;;;;;;;;5082349;28;21094;-66
2024/01/30 09:30:15;;;;;;;8.97;7.97;;;;;;;;;;5096342;28;20447;-67
2024/01/30 09:32:43;;;;;;;9.20;8.40;;;;;;;;;;5093598;28;20459;-66
2024/01/30 09:35:09;;;;;;;9.73;8.73;;;;;;;;;;5092935;28;20478;-66
2024/01/30 09:37:36;;;;;;;9.20;8.27;;;;;;;;;;5089601;28;20515;-67
2024/01/30 09:40:02;;;;;;;8.90;8.10;;;;;;;;;;5091978;28;20545;-67
2024/01/30 09:42:32;;;;;;;9.73;8.93;;;;;;;;;;5091502;28;20467;-67
2024/01/30 09:44:59;;;;;;;9.07;8.37;;;;;;;;;;5090829;28;20530;-66
2024/01/30 09:47:27;;;;;;;9.77;8.83;;;;;;;;;;5085847;28;20459;-65
2024/01/30 09:49:53;;;;;;;9.93;8.93;;;;;;;;;;5085311;28;20450;-65
2024/01/30 09:52:20;;;;;;;9.53;8.67;;;;;;;;;;5095754;28;20519;-66
2024/01/30 09:54:46;;;;;;;9.60;8.60;;;;;;;;;;5083046;28;21000;-65
2024/01/30 09:57:12;;;;;;;9.00;8.10;;;;;;;;;;5091353;28;20867;-66
2024/01/30 09:59:39;;;;;;;9.10;8.30;;;;;;;;;;5093370;28;20555;-66
2024/01/30 10:02:05;;;;;;;13.50;8.10;;;;;;;;;;5087326;28;20481;-65
2024/01/30 10:04:33;;;;;;;9.67;8.80;;;;;;;;;;5085338;28;20543;-65
2024/01/30 10:07:01;;;;;;;10.73;8.60;;;;;;;;;;5091473;28;20475;-65
2024/01/30 10:09:27;;;;;;;9.30;8.03;;;;;;;;;;5082485;28;20553;-66
2024/01/30 10:11:54;;;;;;;10.03;9.10;;;;;;;;;;5079053;28;20887;-66
2024/01/30 10:14:20;;;;;;;10.07;9.07;;;;;;;;;;5082225;28;20530;-66
2024/01/30 10:16:47;;;;;;;11.03;9.30;;;;;;;;;;5087339;28;20586;-66
2024/01/30 10:19:13;;;;;;;10.33;8.90;;;;;;;;;;5085742;28;20516;-65
2024/01/30 10:21:41;;;;;;;9.73;8.33;;;;;;;;;;5100612;28;20465;-65
2024/01/30 10:24:08;;;;;;;9.00;8.07;;;;;;;;;;5097161;28;20557;-65
2024/01/30 10:26:34;;;;;;;8.80;8.00;;;;;;;;;;5096521;28;20558;-65
2024/01/30 10:29:01;;;;;;;11.57;9.27;;;;;;;;;;5092802;28;20522;-65
2024/01/30 10:31:27;;;;;;;11.10;10.20;;;;;;;;;;5094393;28;20446;-65
2024/01/30 10:33:53;;;;;;;10.23;9.23;;;;;;;;;;5087851;28;20538;-66
2024/01/30 10:36:22;;;;;;;10.57;9.20;;;;;;;;;;5095536;28;20485;-65
2024/01/30 10:38:52;;;;;;;10.83;9.63;;;;;;;;;;5090568;28;20548;-66
2024/01/30 10:41:20;;;;;;;10.70;9.60;;;;;;;;;;5087855;28;20447;-66
2024/01/30 10:43:51;;;;;;;10.50;9.50;;;;;;;;;;5086185;28;21156;-66
2024/01/30 10:46:19;;;;;;;10.53;9.53;;;;;;;;;;5099971;28;20504;-66
2024/01/30 10:48:50;;;;;;;11.80;10.60;;;;;;;;;;5107891;28;20502;-66
2024/01/30 10:51:17;;;;;;;10.43;9.67;;;;;;;;;;5089309;28;20485;-66
2024/01/30 10:53:45;;;;;;;11.33;10.20;;;;;;;;;;5092871;28;20490;-66
2024/01/30 10:56:12;;;;;;;11.10;10.10;;;;;;;;;;5087613;28;20519;-67
2024/01/30 10:58:39;;;;;;;11.07;10.07;;;;;;;;;;5093167;28;20455;-67
2024/01/30 11:01:06;;;;;;;12.10;11.07;;;;;;;;;;5092953;28;20499;-66
2024/01/30 11:03:34;;;;;;;10.93;9.93;;;;;;;;;;5095307;28;20530;-65
2024/01/30 11:06:01;;;;;;;12.13;11.10;;;;;;;;;;5098071;28;20443;-66
2024/01/30 11:08:28;;;;;;;11.53;10.63;;;;;;;;;;5097216;28;21714;-66
2024/01/30 11:10:56;;;;;;;12.30;11.20;;;;;;;;;;5097792;28;20449;-65
2024/01/30 11:13:27;;;;;;;11.33;10.23;;;;;;;;;;5095885;28;20489;-66
2024/01/30 11:15:53;;;;;;;11.33;10.23;;;;;;;;;;5097107;28;21030;-65
2024/01/30 11:18:26;;;;;;;11.60;10.50;;;;;;;;;;5096500;28;20514;-66
2024/01/30 11:20:53;;;;;;;10.53;9.63;;;;;;;;;;5097680;28;20443;-65
2024/01/30 11:23:19;;;;;;;11.97;10.17;;;;;;;;;;5096340;28;20451;-65
2024/01/30 11:25:46;;;;;;;10.43;9.43;;;;;;;;;;5097918;28;20791;-66
2024/01/30 11:28:16;;;;;;;11.63;10.50;;;;;;;;;;5098585;28;20483;-66
2024/01/30 11:30:44;;;;;;;10.00;9.00;;;;;;;;;;5098041;28;20438;-66
2024/01/30 11:33:11;;;;;;;10.60;9.33;;;;;;;;;;5091284;28;20459;-65
2024/01/30 11:35:39;;;;;;;10.97;9.53;;;;;;;;;;5094820;28;20443;-66
2024/01/30 11:38:06;;;;;;;11.27;10.27;;;;;;;;;;5096522;28;20486;-67
2024/01/30 11:40:33;;;;;;;12.23;10.70;;;;;;;;;;5096427;28;20458;-67
2024/01/30 11:43:00;;;;;;;10.47;9.37;;;;;;;;;;5097385;28;20457;-66
2024/01/30 11:45:27;;;;;;;10.33;9.33;;;;;;;;;;5092891;28;20453;-65
2024/01/30 11:47:55;;;;;;;11.13;10.23;;;;;;;;;;5093208;28;20458;-67
2024/01/30 11:50:21;;;;;;;14.67;9.30;;;;;;;;;;5095090;28;20526;-67
2024/01/30 11:52:48;;;;;;;10.60;9.60;;;;;;;;;;5097727;28;20455;-66
2024/01/30 11:55:15;;;;;;;11.23;10.07;;;;;;;;;;5097688;28;20444;-66
2024/01/30 11:57:41;;;;;;;11.50;10.30;;;;;;;;;;5097281;28;20538;-66
2024/01/30 12:00:15;;;;;;;11.17;10.07;;;;;;;;;;5090092;28;20498;-67
2024/01/30 12:02:41;;;;;;;11.80;10.60;;;;;;;;;;5092197;28;20531;-67
2024/01/30 12:05:10;;;;;;;10.27;9.40;;;;;;;;;;5097064;28;20478;-67
2024/01/30 12:07:36;;;;;;;10.90;9.90;;;;;;;;;;5095297;28;20463;-67
2024/01/30 12:10:02;;;;;;;11.27;9.47;;;;;;;;;;5104268;28;20554;-67
2024/01/30 12:12:29;;;;;;;11.50;10.40;;;;;;;;;;5099797;28;20467;-65
2024/01/30 12:14:56;;;;;;;10.70;9.70;;;;;;;;;;5095354;28;20440;-65
2024/01/30 12:17:27;;;;;;;11.80;10.60;;;;;;;;;;5092756;28;20558;-65
2024/01/30 12:20:03;;;;;;;10.90;10.00;;;;;;;;;;5094371;28;20535;-65
2024/01/30 12:22:31;;;;;;;12.80;11.60;;;;;;;;;;5096976;28;20459;-64
2024/01/30 12:24:57;;;;;;;10.93;9.43;;;;;;;;;;5095553;28;20505;-67
2024/01/30 12:27:24;;;;;;;10.53;9.40;;;;;;;;;;5096209;28;20475;-65
2024/01/30 12:29:56;;;;;;;13.23;10.43;;;;;;;;;;5095553;28;20524;-67
2024/01/30 12:32:23;;;;;;;10.80;9.80;;;;;;;;;;5098144;28;20489;-65
2024/01/30 12:34:49;;;;;;;11.40;10.33;;;;;;;;;;5091659;28;20439;-64
2024/01/30 12:37:19;;;;;;;12.07;10.80;;;;;;;;;;5093469;28;20968;-65
2024/01/30 12:39:47;;;;;;;10.20;9.30;;;;;;;;;;5098717;28;20451;-65
2024/01/30 12:42:14;;;;;;;10.43;9.43;;;;;;;;;;5097629;28;20477;-65
2024/01/30 12:44:41;;;;;;;10.23;9.23;;;;;;;;;;5090418;28;20463;-65
2024/01/30 12:47:09;;;;;;;11.47;10.37;;;;;;;;;;5087748;28;20473;-68
2024/01/30 12:49:35;;;;;;;10.40;9.30;;;;;;;;;;5092392;28;20514;-64
2024/01/30 12:52:02;;;;;;;10.20;8.80;;;;;;;;;;5093584;28;20543;-63
2024/01/30 12:54:29;;;;;;;13.20;10.87;;;;;;;;;;5094588;28;20458;-66
2024/01/30 12:56:57;;;;;;;12.40;10.00;;;;;;;;;;5094334;28;20546;-62
2024/01/30 12:59:23;;;;;;;10.23;8.93;;;;;;;;;;5096317;28;21177;-65
2024/01/30 13:01:50;;;;;;;13.77;8.50;;;;;;;;;;5092260;28;20444;-65
2024/01/30 13:04:16;;;;;;;12.20;9.27;;;;;;;;;;5089234;28;20447;-63
2024/01/30 13:06:43;;;;;;;10.73;9.73;;;;;;;;;;5098523;28;20477;-64
2024/01/30 13:09:09;;;;;;;10.60;8.60;;;;;;;;;;5092542;28;20934;-64
2024/01/30 13:11:36;;;;;;;10.77;9.70;;;;;;;;;;5094341;28;20449;-64
2024/01/30 13:14:04;;;;;;;9.97;8.93;;;;;;;;;;5098162;28;20443;-66
2024/01/30 13:16:30;;;;;;;11.80;8.97;;;;;;;;;;5096131;28;20435;-67
2024/01/30 13:18:56;;;;;;;9.77;8.87;;;;;;;;;;5097544;28;20489;-65
2024/01/30 13:21:23;;;;;;;12.70;10.23;;;;;;;;;;5097180;28;20515;-65
2024/01/30 13:23:52;;;;;;;11.10;9.30;;;;;;;;;;5095765;28;20537;-67
2024/01/30 13:26:19;;;;;;;11.47;8.97;;;;;;;;;;5092963;28;20458;-66
2024/01/30 13:28:45;;;;;;;10.93;9.83;;;;;;;;;;5097006;28;20522;-65
2024/01/30 13:31:13;;;;;;;11.50;10.50;;;;;;;;;;5094687;28;20447;-65
2024/01/30 13:33:40;;;;;;;11.97;10.63;;;;;;;;;;5096030;28;20508;-65
2024/01/30 13:36:09;;;;;;;11.63;10.10;;;;;;;;;;5093140;28;20486;-65
2024/01/30 13:38:35;;;;;;;12.00;10.80;;;;;;;;;;5093827;28;20482;-68
2024/01/30 13:41:02;;;;;;;12.00;10.40;;;;;;;;;;5089541;28;20455;-65
2024/01/30 13:43:29;;;;;;;11.93;10.73;;;;;;;;;;5094379;28;21038;-66
2024/01/30 13:45:55;;;;;;;12.20;10.90;;;;;;;;;;5087476;28;20486;-65
2024/01/30 13:48:23;;;;;;;13.57;11.27;;;;;;;;;;5098415;28;20450;-66
2024/01/30 13:50:49;;;;;;;11.03;10.03;;;;;;;;;;5094189;28;20578;-66
2024/01/30 13:53:15;;;;;;;15.97;11.90;;;;;;;;;;5088504;28;21030;-66
2024/01/30 13:55:42;;;;;;;15.73;10.40;;;;;;;;;;5097456;28;20458;-65
2024/01/30 13:58:08;;;;;;;14.43;11.00;;;;;;;;;;5099516;28;20511;-64
2024/01/30 14:00:35;;;;;;;16.43;11.47;;;;;;;;;;5093556;28;20446;-66
2024/01/30 14:03:01;;;;;;;14.80;10.30;;;;;;;;;;5090218;28;20523;-65
2024/01/30 14:05:29;;;;;;;11.90;10.23;;;;;;;;;;5095724;28;20526;-65
2024/01/30 14:07:56;;;;;;;13.40;10.70;;;;;;;;;;5093558;28;20557;-66
2024/01/30 14:10:23;;;;;;;14.93;10.83;;;;;;;;;;5094841;28;20521;-67
2024/01/30 14:12:49;;;;;;;13.30;11.40;;;;;;;;;;5091078;28;20455;-67
2024/01/30 14:15:17;;;;;;;13.33;11.93;;;;;;;;;;5096404;28;20649;-66
2024/01/30 14:17:44;;;;;;;14.67;11.50;;;;;;;;;;5094268;28;20447;-66